Time;durP1;ratioP1;P1;durP2;ratioP2;P2;SDS_P1;SDS_P2;PMS_P1;PMS_P2;Temp;Humidity;BMP_temperature;BMP_pressure;BME280_temperature;BME280_humidity;BME280_pressure;Samples;Min_cycle;Max_cycle;Signal;HPM_P1;HPM_P2
2023/09/14 00:00:19;;;;;;;4.65;3.70;;;11.30;99.90;;;;;;4979398;28;93198;-34
2023/09/14 00:02:45;;;;;;;6.13;3.47;;;11.30;99.90;;;;;;4998945;28;92625;-37
2023/09/14 00:05:11;;;;;;;9.40;3.90;;;11.30;99.90;;;;;;4996781;28;94398;-37
2023/09/14 00:07:37;;;;;;;7.35;3.47;;;11.30;99.90;;;;;;4998808;28;94008;-37
2023/09/14 00:10:03;;;;;;;6.35;3.50;;;11.30;99.90;;;;;;4997386;28;95729;-35
2023/09/14 00:12:28;;;;;;;7.03;2.58;;;11.30;99.90;;;;;;4997660;28;93364;-36
2023/09/14 00:14:54;;;;;;;9.57;4.88;;;11.30;99.90;;;;;;4997642;28;94738;-35
2023/09/14 00:17:19;;;;;;;4.75;3.88;;;11.40;99.90;;;;;;4997880;28;94593;-34
2023/09/14 00:19:45;;;;;;;6.00;3.28;;;11.30;99.90;;;;;;4998273;28;94143;-35
2023/09/14 00:22:11;;;;;;;8.30;4.18;;;11.30;99.90;;;;;;4997495;28;93011;-37
2023/09/14 00:24:37;;;;;;;5.82;2.45;;;11.30;99.90;;;;;;4995230;28;95455;-33
2023/09/14 00:27:03;;;;;;;6.25;3.95;;;11.30;99.90;;;;;;4987693;28;94128;-37
2023/09/14 00:29:29;;;;;;;6.18;4.05;;;11.30;99.90;;;;;;4996856;28;94574;-33
2023/09/14 00:31:55;;;;;;;11.35;3.95;;;11.20;99.90;;;;;;4998091;28;92608;-35
2023/09/14 00:34:20;;;;;;;5.18;4.18;;;11.10;99.90;;;;;;4996488;28;95969;-36
2023/09/14 00:36:46;;;;;;;9.57;4.43;;;11.10;99.90;;;;;;4984216;28;95138;-37
2023/09/14 00:39:12;;;;;;;7.18;4.18;;;11.10;99.90;;;;;;4998593;28;93414;-32
2023/09/14 00:41:37;;;;;;;6.55;4.43;;;11.10;99.90;;;;;;4997359;28;92125;-34
2023/09/14 00:44:03;;;;;;;5.22;4.18;;;11.20;99.90;;;;;;4997484;28;94692;-34
2023/09/14 00:46:30;;;;;;;8.55;5.13;;;11.10;99.90;;;;;;4997464;28;94183;-33
2023/09/14 00:48:56;;;;;;;11.40;5.18;;;11.10;99.90;;;;;;4997569;28;93046;-34
2023/09/14 00:51:22;;;;;;;7.65;5.07;;;11.10;99.90;;;;;;4984635;28;93919;-36
2023/09/14 00:53:50;;;;;;;6.78;4.80;;;11.10;99.90;;;;;;4996924;28;94931;-35
2023/09/14 00:56:16;;;;;;;9.33;4.63;;;11.20;99.90;;;;;;4994897;28;94163;-39
2023/09/14 00:58:42;;;;;;;7.80;5.32;;;11.10;99.90;;;;;;4987066;28;94733;-35
2023/09/14 01:01:08;;;;;;;6.82;4.82;;;11.10;99.90;;;;;;4996558;28;93310;-36
2023/09/14 01:03:33;;;;;;;5.65;4.35;;;11.20;99.90;;;;;;4997762;28;94968;-34
2023/09/14 01:05:59;;;;;;;5.97;4.50;;;11.20;99.90;;;;;;4983825;28;94586;-32
2023/09/14 01:08:25;;;;;;;6.18;4.35;;;11.20;99.90;;;;;;4997805;28;94634;-38
2023/09/14 01:10:51;;;;;;;8.20;4.75;;;11.20;99.90;;;;;;4997282;28;94003;-34
2023/09/14 01:13:30;;;;;;;9.38;5.25;;;11.20;99.90;;;;;;4996386;28;94188;-34
2023/09/14 01:16:10;;;;;;;6.85;4.10;;;11.20;99.90;;;;;;4996974;28;94446;-34
2023/09/14 01:19:26;;;;;;;6.15;4.22;;;11.20;99.90;;;;;;4997339;28;94751;-33
2023/09/14 01:22:09;;;;;;;8.43;5.05;;;11.20;99.90;;;;;;4950837;28;93766;-38
2023/09/14 01:24:46;;;;;;;8.88;5.03;;;11.10;99.90;;;;;;4996181;28;95785;-36
2023/09/14 01:27:13;;;;;;;7.60;3.95;;;11.20;99.90;;;;;;4996403;28;95550;-34
2023/09/14 01:29:40;;;;;;;6.95;4.25;;;11.20;99.90;;;;;;4982139;28;93156;-32
2023/09/14 01:32:06;;;;;;;9.10;4.55;;;11.20;99.90;;;;;;4992479;28;94491;-36
2023/09/14 01:34:32;;;;;;;7.22;4.57;;;11.20;99.90;;;;;;4995594;28;93591;-33
2023/09/14 01:37:03;;;;;;;5.05;4.20;;;11.30;99.90;;;;;;4989020;28;94895;-39
2023/09/14 01:39:31;;;;;;;3.67;2.70;;;11.30;99.90;;;;;;4992103;28;93538;-33
2023/09/14 01:41:57;;;;;;;5.38;4.45;;;11.20;99.90;;;;;;4993174;28;91423;-37
2023/09/14 01:44:27;;;;;;;8.02;4.22;;;11.20;99.90;;;;;;4990324;28;94238;-33
2023/09/14 01:46:53;;;;;;;8.80;4.22;;;11.20;99.90;;;;;;4989995;28;94013;-36
2023/09/14 01:49:19;;;;;;;5.90;4.40;;;11.20;99.90;;;;;;4992435;28;95425;-34
2023/09/14 01:51:45;;;;;;;6.13;4.88;;;11.20;99.90;;;;;;4983235;28;93083;-34
2023/09/14 01:54:11;;;;;;;12.80;5.20;;;11.10;99.90;;;;;;4990507;28;94798;-37
2023/09/14 01:56:36;;;;;;;4.53;2.50;;;11.10;99.90;;;;;;4995526;28;94522;-37
2023/09/14 01:59:02;;;;;;;4.43;2.63;;;11.10;99.90;;;;;;4989219;28;92149;-35
2023/09/14 02:01:28;;;;;;;4.82;3.20;;;11.10;99.90;;;;;;4995940;28;92757;-36
2023/09/14 02:03:54;;;;;;;7.22;4.30;;;11.00;99.90;;;;;;4994725;28;94743;-38
2023/09/14 02:06:19;;;;;;;10.73;2.97;;;11.00;99.90;;;;;;4995975;28;93943;-35
2023/09/14 02:08:45;;;;;;;6.25;4.20;;;11.00;99.90;;;;;;4995531;28;92256;-33
2023/09/14 02:11:13;;;;;;;6.15;2.78;;;11.00;99.90;;;;;;4996119;28;92168;-36
2023/09/14 02:13:39;;;;;;;4.83;3.27;;;11.00;99.90;;;;;;4995355;28;95931;-36
2023/09/14 02:16:05;;;;;;;7.20;4.20;;;10.90;99.90;;;;;;4994757;28;95671;-36
2023/09/14 02:18:31;;;;;;;8.18;4.07;;;10.90;99.90;;;;;;4996187;28;93154;-34
2023/09/14 02:20:56;;;;;;;6.10;3.58;;;10.90;99.90;;;;;;4995954;28;95114;-32
2023/09/14 02:23:22;;;;;;;4.13;2.47;;;10.90;99.90;;;;;;4995262;28;94757;-33
2023/09/14 02:25:49;;;;;;;3.30;2.45;;;10.90;99.90;;;;;;4995492;28;93938;-34
2023/09/14 02:28:15;;;;;;;8.52;3.60;;;10.80;99.90;;;;;;4995386;28;93909;-34
2023/09/14 02:30:42;;;;;;;8.77;5.13;;;10.80;99.90;;;;;;4995345;28;93763;-39
2023/09/14 02:33:08;;;;;;;4.78;2.13;;;10.70;99.90;;;;;;4996205;28;94882;-32
2023/09/14 02:35:38;;;;;;;4.88;3.92;;;10.70;99.90;;;;;;4995636;28;93012;-33
2023/09/14 02:38:04;;;;;;;7.60;3.97;;;10.70;99.90;;;;;;4984476;28;95539;-34
2023/09/14 02:40:30;;;;;;;7.57;2.05;;;10.70;99.90;;;;;;4989085;28;93742;-37
2023/09/14 02:42:56;;;;;;;4.18;2.30;;;10.70;99.90;;;;;;4987788;28;95631;-34
2023/09/14 02:45:22;;;;;;;7.28;4.45;;;10.60;99.90;;;;;;4989852;28;94622;-32
2023/09/14 02:47:47;;;;;;;7.43;4.75;;;10.60;99.90;;;;;;4988724;28;92339;-34
2023/09/14 02:50:13;;;;;;;10.40;4.70;;;10.60;99.90;;;;;;4995078;28;95004;-33
2023/09/14 02:52:39;;;;;;;8.52;4.32;;;10.60;99.90;;;;;;4995726;28;94447;-37
2023/09/14 02:55:05;;;;;;;6.53;5.15;;;10.50;99.90;;;;;;4994775;28;95032;-37
2023/09/14 02:57:30;;;;;;;5.65;3.45;;;10.50;99.90;;;;;;4995684;28;94474;-37
2023/09/14 02:59:56;;;;;;;4.88;3.15;;;10.50;99.90;;;;;;4995585;28;94466;-33
2023/09/14 03:02:22;;;;;;;4.65;2.05;;;10.40;99.90;;;;;;4994738;28;95581;-33
2023/09/14 03:04:48;;;;;;;3.55;3.05;;;10.40;99.90;;;;;;4995565;28;96042;-36
2023/09/14 03:07:14;;;;;;;3.35;2.00;;;10.40;99.90;;;;;;4995361;28;92243;-33
2023/09/14 03:09:40;;;;;;;11.27;4.95;;;10.40;99.90;;;;;;4989141;28;92172;-33
2023/09/14 03:12:06;;;;;;;6.78;2.78;;;10.50;99.90;;;;;;4988532;28;95436;-37
2023/09/14 03:14:32;;;;;;;7.32;3.80;;;10.40;99.90;;;;;;4994806;28;94295;-33
2023/09/14 03:16:58;;;;;;;7.65;2.78;;;10.50;99.90;;;;;;4995421;28;94989;-38
2023/09/14 03:19:26;;;;;;;5.75;2.45;;;10.40;99.90;;;;;;4998958;28;92734;-35
2023/09/14 03:21:52;;;;;;;5.75;2.35;;;10.40;99.90;;;;;;4998130;28;94782;-38
2023/09/14 03:24:18;;;;;;;5.47;2.75;;;10.40;99.90;;;;;;4986078;28;94570;-35
2023/09/14 03:26:44;;;;;;;7.35;4.63;;;10.50;99.90;;;;;;4998949;28;94653;-33
2023/09/14 03:29:10;;;;;;;7.53;3.30;;;10.40;99.90;;;;;;4998361;28;94288;-32
2023/09/14 03:31:36;;;;;;;17.75;4.13;;;10.40;99.90;;;;;;4980350;28;95103;-36
2023/09/14 03:34:01;;;;;;;4.07;2.90;;;10.30;99.90;;;;;;4997801;28;94819;-36
2023/09/14 03:36:27;;;;;;;6.47;2.15;;;10.30;99.90;;;;;;4985403;28;93267;-34
2023/09/14 03:38:53;;;;;;;5.57;4.20;;;10.20;99.90;;;;;;4985550;28;94990;-34
2023/09/14 03:41:19;;;;;;;8.43;4.57;;;10.20;99.90;;;;;;4997702;28;95590;-34
2023/09/14 03:43:44;;;;;;;3.90;3.53;;;10.20;99.90;;;;;;4998759;28;95389;-33
2023/09/14 03:46:15;;;;;;;5.13;2.15;;;10.10;99.90;;;;;;4998261;28;93829;-32
2023/09/14 03:48:41;;;;;;;7.90;3.05;;;10.10;99.90;;;;;;4998736;28;94307;-35
2023/09/14 03:51:07;;;;;;;4.00;2.55;;;10.00;99.90;;;;;;4997457;28;93894;-38
2023/09/14 03:53:33;;;;;;;15.35;5.03;;;10.00;99.90;;;;;;4997739;28;95447;-35
2023/09/14 03:55:59;;;;;;;3.47;2.88;;;9.90;99.90;;;;;;4998185;28;92370;-35
2023/09/14 03:58:26;;;;;;;3.85;2.40;;;9.90;99.90;;;;;;4997810;28;93779;-36
2023/09/14 04:00:52;;;;;;;2.88;1.98;;;9.90;99.90;;;;;;4998432;28;94772;-38
2023/09/14 04:03:18;;;;;;;4.85;2.95;;;9.90;99.90;;;;;;4997395;28;96416;-32
2023/09/14 04:05:44;;;;;;;5.20;3.47;;;10.00;99.90;;;;;;4980683;28;92854;-33
2023/09/14 04:08:10;;;;;;;3.22;2.47;;;9.90;99.90;;;;;;4984879;28;92898;-34
2023/09/14 04:10:40;;;;;;;7.15;3.20;;;9.90;99.90;;;;;;4997349;28;93993;-35
2023/09/14 04:13:25;;;;;;;6.50;2.83;;;9.90;99.90;;;;;;4997833;28;94239;-36
2023/09/14 04:15:50;;;;;;;6.40;2.30;;;9.90;99.90;;;;;;4998076;28;93138;-33
2023/09/14 04:18:17;;;;;;;3.28;2.95;;;9.80;99.90;;;;;;4997968;28;94880;-34
2023/09/14 04:20:43;;;;;;;4.82;2.67;;;9.80;99.90;;;;;;4997201;28;94889;-39
2023/09/14 04:23:09;;;;;;;3.58;2.35;;;9.70;99.90;;;;;;4997017;28;95168;-36
2023/09/14 04:25:36;;;;;;;9.55;5.90;;;9.80;99.90;;;;;;4990578;28;93841;-35
2023/09/14 04:28:02;;;;;;;16.37;5.33;;;9.80;99.90;;;;;;4994924;28;93716;-33
2023/09/14 04:30:28;;;;;;;3.75;2.38;;;9.80;99.90;;;;;;4993989;28;95067;-34
2023/09/14 04:32:54;;;;;;;6.22;2.75;;;9.90;99.90;;;;;;4993871;28;94937;-33
2023/09/14 04:35:19;;;;;;;7.82;2.45;;;9.80;99.90;;;;;;4995583;28;92120;-34
2023/09/14 04:37:45;;;;;;;3.75;2.58;;;9.80;99.90;;;;;;4995887;28;94589;-34
2023/09/14 04:40:11;;;;;;;6.50;2.80;;;9.80;99.90;;;;;;4994163;28;95473;-36
2023/09/14 04:42:37;;;;;;;3.75;2.58;;;9.80;99.90;;;;;;4995801;28;95176;-35
2023/09/14 04:45:03;;;;;;;3.13;2.38;;;9.80;99.90;;;;;;4994510;28;94875;-35
2023/09/14 04:47:28;;;;;;;3.17;2.88;;;9.80;99.90;;;;;;4995534;28;93186;-35
2023/09/14 04:49:54;;;;;;;5.25;3.00;;;9.80;99.90;;;;;;4994435;28;95021;-36
2023/09/14 04:52:19;;;;;;;5.13;2.90;;;9.80;99.90;;;;;;4996093;28;94522;-36
2023/09/14 04:54:45;;;;;;;3.55;3.25;;;9.80;99.90;;;;;;4994471;28;93428;-38
2023/09/14 04:57:11;;;;;;;8.50;5.38;;;9.90;99.90;;;;;;4995471;28;92609;-34
2023/09/14 04:59:36;;;;;;;4.90;2.90;;;9.90;99.90;;;;;;4995115;28;94696;-34
2023/09/14 05:02:02;;;;;;;3.65;2.90;;;9.90;99.90;;;;;;4976179;28;94550;-34
2023/09/14 05:04:27;;;;;;;3.92;2.10;;;10.00;99.90;;;;;;4995039;28;93294;-34
2023/09/14 05:06:53;;;;;;;4.13;3.38;;;9.90;99.90;;;;;;4994465;28;93224;-36
2023/09/14 05:09:19;;;;;;;5.90;4.43;;;9.90;99.90;;;;;;4993812;28;95164;-37
2023/09/14 05:11:44;;;;;;;4.20;2.97;;;9.90;99.90;;;;;;4995444;28;94832;-36
2023/09/14 05:14:10;;;;;;;2.20;1.58;;;9.90;99.90;;;;;;4994864;28;92372;-35
2023/09/14 05:16:35;;;;;;;2.42;2.10;;;9.90;99.90;;;;;;4994156;28;92339;-35
2023/09/14 05:19:01;;;;;;;2.15;1.90;;;9.90;99.90;;;;;;4993750;28;94372;-33
2023/09/14 05:21:27;;;;;;;3.80;2.25;;;9.90;99.90;;;;;;4994601;28;94864;-38
2023/09/14 05:23:52;;;;;;;3.58;2.30;;;9.90;99.90;;;;;;4992669;28;93156;-35
2023/09/14 05:26:18;;;;;;;4.22;2.38;;;9.90;99.90;;;;;;4994885;28;94647;-33
2023/09/14 05:28:43;;;;;;;5.43;3.97;;;9.90;99.90;;;;;;4993192;28;96080;-34
2023/09/14 05:31:10;;;;;;;7.25;3.95;;;10.00;99.90;;;;;;5027587;22;95193;-35
2023/09/14 05:33:35;;;;;;;6.35;4.07;;;10.00;99.90;;;;;;4994545;28;94760;-35
2023/09/14 05:36:01;;;;;;;6.82;3.67;;;10.00;99.90;;;;;;4986962;28;92895;-35
2023/09/14 05:38:27;;;;;;;1.58;1.45;;;10.10;99.90;;;;;;4980434;28;94736;-36
2023/09/14 05:40:53;;;;;;;6.60;2.65;;;10.10;99.90;;;;;;4993757;28;95021;-37
2023/09/14 05:43:18;;;;;;;3.92;2.65;;;10.10;99.90;;;;;;4994367;28;93550;-36
2023/09/14 05:45:44;;;;;;;3.70;2.97;;;10.00;99.90;;;;;;4994390;28;93563;-34
2023/09/14 05:48:10;;;;;;;3.83;2.28;;;10.10;99.90;;;;;;4993284;28;94274;-37
2023/09/14 05:50:35;;;;;;;5.80;2.90;;;10.10;99.90;;;;;;4994083;28;94665;-34
2023/09/14 05:53:02;;;;;;;2.80;2.22;;;10.10;99.90;;;;;;4993607;28;94264;-33
2023/09/14 05:55:27;;;;;;;3.78;1.80;;;10.20;99.90;;;;;;4994097;28;92767;-35
2023/09/14 05:57:54;;;;;;;3.03;2.08;;;10.20;99.90;;;;;;4993187;28;96219;-32
2023/09/14 06:00:20;;;;;;;5.70;3.63;;;10.20;99.90;;;;;;4992954;28;94603;-35
2023/09/14 06:02:45;;;;;;;3.78;2.40;;;10.30;99.90;;;;;;4994282;28;93828;-37
2023/09/14 06:05:11;;;;;;;3.40;3.10;;;10.30;99.90;;;;;;4993453;28;93287;-37
2023/09/14 06:07:37;;;;;;;2.55;1.60;;;10.30;99.90;;;;;;4975330;28;94198;-34
2023/09/14 06:10:03;;;;;;;4.25;2.33;;;10.40;99.90;;;;;;4993667;28;94134;-34
2023/09/14 06:12:29;;;;;;;2.65;2.45;;;10.40;99.90;;;;;;4990446;28;94271;-34
2023/09/14 06:14:56;;;;;;;6.22;2.15;;;10.40;99.90;;;;;;4993891;28;94213;-36
2023/09/14 06:17:22;;;;;;;7.32;3.28;;;10.40;99.90;;;;;;4993181;28;95789;-35
2023/09/14 06:19:48;;;;;;;3.75;2.55;;;10.50;99.90;;;;;;4993630;28;95230;-34
2023/09/14 06:22:13;;;;;;;11.35;2.35;;;10.50;99.90;;;;;;4993066;28;93418;-36
2023/09/14 06:24:39;;;;;;;5.65;3.25;;;10.60;99.90;;;;;;4993180;28;93909;-35
2023/09/14 06:27:05;;;;;;;6.18;4.07;;;10.60;99.90;;;;;;4989461;28;94844;-33
2023/09/14 06:29:30;;;;;;;2.88;2.33;;;10.70;99.90;;;;;;4984414;28;94619;-37
2023/09/14 06:31:56;;;;;;;7.75;3.83;;;10.70;99.90;;;;;;4991815;28;92532;-33
2023/09/14 06:34:22;;;;;;;3.95;1.73;;;10.80;99.90;;;;;;4994071;28;94446;-34
2023/09/14 06:36:47;;;;;;;4.60;3.17;;;10.80;99.90;;;;;;4979180;28;96112;-33
2023/09/14 06:39:13;;;;;;;4.90;2.30;;;10.90;99.90;;;;;;4980293;28;95098;-34
2023/09/14 06:41:39;;;;;;;2.92;1.92;;;11.00;99.90;;;;;;4992847;28;94972;-35
2023/09/14 06:44:05;;;;;;;4.38;2.58;;;11.10;99.90;;;;;;4993113;28;92997;-35
2023/09/14 06:46:31;;;;;;;5.10;2.33;;;11.10;99.90;;;;;;4991246;28;94971;-34
2023/09/14 06:48:57;;;;;;;2.75;2.20;;;11.30;99.90;;;;;;4991505;28;94626;-33
2023/09/14 06:51:22;;;;;;;5.15;2.15;;;11.40;99.90;;;;;;4985279;28;93043;-35
2023/09/14 06:53:48;;;;;;;4.65;2.78;;;11.40;99.90;;;;;;4994699;28;93981;-32
2023/09/14 06:56:15;;;;;;;2.30;1.70;;;11.50;99.90;;;;;;4995808;28;94376;-38
2023/09/14 06:58:41;;;;;;;2.67;2.40;;;11.70;99.90;;;;;;4996196;28;94180;-35
2023/09/14 07:01:06;;;;;;;4.03;3.17;;;11.90;99.90;;;;;;4994682;28;93459;-38
2023/09/14 07:03:34;;;;;;;1.88;1.38;;;12.00;99.90;;;;;;4997005;28;92949;-37
2023/09/14 07:06:00;;;;;;;9.77;4.07;;;12.20;99.90;;;;;;4996211;28;95007;-35
2023/09/14 07:08:26;;;;;;;4.00;2.60;;;12.30;99.90;;;;;;4994830;28;95571;-35
2023/09/14 07:10:53;;;;;;;7.38;3.10;;;12.40;99.90;;;;;;4997171;28;93728;-36
2023/09/14 07:13:19;;;;;;;5.43;2.65;;;;;;;;;;4995499;28;94321;-34
2023/09/14 07:15:45;;;;;;;13.68;2.78;;;;;;;;;;4995427;28;94854;-37
2023/09/14 07:18:11;;;;;;;6.05;3.13;;;;;;;;;;4996164;28;94230;-37
2023/09/14 07:20:37;;;;;;;5.07;2.60;;;;;;;;;;4996678;28;93567;-36
2023/09/14 07:23:03;;;;;;;5.55;2.88;;;;;;;;;;4995949;28;93811;-39
2023/09/14 07:25:30;;;;;;;1.92;1.67;;;;;;;;;;4996533;28;95055;-36
2023/09/14 07:27:56;;;;;;;4.25;2.67;;;;;;;;;;4995809;28;94247;-37
2023/09/14 07:30:23;;;;;;;5.18;2.40;;;;;;;;;;4995319;28;93890;-36
2023/09/14 07:32:49;;;;;;;4.07;2.08;;;;;;;;;;4996067;28;94738;-37
2023/09/14 07:35:15;;;;;;;7.32;2.65;;;;;;;;;;4988312;28;94567;-38
2023/09/14 07:37:41;;;;;;;4.38;2.20;;;;;;;;;;4981046;28;94773;-34
2023/09/14 07:40:07;;;;;;;5.68;2.88;;;;;;;;;;4990752;28;93201;-36
2023/09/14 07:42:33;;;;;;;3.63;1.88;;;;;;;;;;4996043;28;93192;-35
2023/09/14 07:44:59;;;;;;;4.75;2.13;;;;;;;;;;4994793;28;94743;-35
2023/09/14 07:47:29;;;;;;;9.80;2.42;;;;;;;;;;4996111;28;94436;-35
2023/09/14 07:49:55;;;;;;;8.20;2.40;;;15.10;99.90;;;;;;4995905;28;92246;-36
2023/09/14 07:52:21;;;;;;;7.20;2.15;;;15.20;99.90;;;;;;4994438;28;93024;-36
2023/09/14 07:54:47;;;;;;;3.80;2.28;;;15.30;99.90;;;;;;4994922;28;96188;-36
2023/09/14 07:57:13;;;;;;;5.18;2.00;;;15.40;99.90;;;;;;4995250;28;96178;-35
2023/09/14 07:59:38;;;;;;;5.22;2.13;;;15.50;99.90;;;;;;4995040;28;93445;-35
2023/09/14 08:02:05;;;;;;;6.70;2.38;;;15.60;99.90;;;;;;4995149;28;93753;-34
2023/09/14 08:04:31;;;;;;;10.70;2.40;;;15.70;99.90;;;;;;4993687;28;94833;-38
2023/09/14 08:06:56;;;;;;;6.75;2.63;;;15.80;99.90;;;;;;4994721;28;94466;-34
2023/09/14 08:09:23;;;;;;;5.70;2.28;;;16.00;99.90;;;;;;4977438;28;93166;-35
2023/09/14 08:11:49;;;;;;;6.22;2.08;;;16.20;99.90;;;;;;4996528;28;93543;-38
2023/09/14 08:14:14;;;;;;;9.57;2.50;;;16.30;99.90;;;;;;4993984;28;94877;-34
2023/09/14 08:16:40;;;;;;;6.10;2.35;;;16.40;99.90;;;;;;4994873;28;94637;-37
2023/09/14 08:19:06;;;;;;;5.72;2.10;;;16.50;99.90;;;;;;4994269;28;96167;-33
2023/09/14 08:21:32;;;;;;;11.48;2.45;;;16.60;99.90;;;;;;4994536;28;93459;-37
2023/09/14 08:23:57;;;;;;;8.63;2.80;;;16.80;99.90;;;;;;4994559;28;96541;-33
2023/09/14 08:26:23;;;;;;;5.75;2.70;;;16.90;99.90;;;;;;4995336;28;94288;-36
2023/09/14 08:28:49;;;;;;;6.43;2.70;;;17.10;99.90;;;;;;4993951;28;93271;-32
2023/09/14 08:31:14;;;;;;;4.57;2.03;;;17.20;99.90;;;;;;4995128;28;93826;-33
2023/09/14 08:33:40;;;;;;;5.93;2.28;;;17.10;99.90;;;;;;4993828;28;94928;-35
2023/09/14 08:36:06;;;;;;;3.47;1.60;;;17.30;99.90;;;;;;4963093;28;95811;-36
2023/09/14 08:38:31;;;;;;;5.47;2.00;;;17.40;99.90;;;;;;4981171;28;94488;-34
2023/09/14 08:41:15;;;;;;;4.55;2.15;;;17.50;99.90;;;;;;4994306;28;93975;-37
2023/09/14 08:43:42;;;;;;;6.40;2.67;;;17.70;99.90;;;;;;4980924;28;96811;-34
2023/09/14 08:46:11;;;;;;;5.68;2.50;;;17.70;99.90;;;;;;4994773;28;96979;-32
2023/09/14 08:48:42;;;;;;;4.45;1.73;;;17.50;99.90;;;;;;4994043;28;93987;-34
2023/09/14 08:51:10;;;;;;;6.38;1.90;;;17.70;99.90;;;;;;4993817;28;94472;-33
2023/09/14 08:53:36;;;;;;;7.97;2.38;;;17.80;99.90;;;;;;4976501;28;96599;-34
2023/09/14 08:56:04;;;;;;;4.18;2.13;;;18.00;99.90;;;;;;4994933;28;94297;-35
2023/09/14 08:58:30;;;;;;;6.32;2.67;;;18.00;99.90;;;;;;4994254;28;93312;-33
2023/09/14 09:00:57;;;;;;;3.80;2.53;;;17.80;99.90;;;;;;4993833;28;92494;-36
2023/09/14 09:03:22;;;;;;;9.65;2.83;;;18.00;99.90;;;;;;4994737;28;94507;-36
2023/09/14 09:05:49;;;;;;;6.93;2.78;;;18.00;99.90;;;;;;4993586;28;94686;-36
2023/09/14 09:08:17;;;;;;;5.10;2.45;;;18.00;99.90;;;;;;4993533;28;93518;-38
2023/09/14 09:10:43;;;;;;;15.27;3.38;;;17.80;99.90;;;;;;4976502;28;93443;-34
2023/09/14 09:13:09;;;;;;;9.00;2.80;;;18.00;99.90;;;;;;4993059;28;94167;-34
2023/09/14 09:15:39;;;;;;;5.60;2.08;;;18.00;99.90;;;;;;4991818;28;94052;-37
2023/09/14 09:18:09;;;;;;;6.35;2.30;;;18.20;99.90;;;;;;4987884;28;92969;-32
2023/09/14 09:20:36;;;;;;;2.55;1.98;;;18.30;99.90;;;;;;4991028;28;94623;-35
2023/09/14 09:23:03;;;;;;;7.72;2.65;;;18.50;99.90;;;;;;4993695;28;95350;-34
2023/09/14 09:25:41;;;;;;;6.38;2.72;;;18.50;99.90;;;;;;4994521;28;94615;-36
2023/09/14 09:28:07;;;;;;;4.13;2.17;;;18.50;99.90;;;;;;4986281;28;92926;-35
2023/09/14 09:30:34;;;;;;;5.30;2.45;;;18.30;99.90;;;;;;4993038;28;93399;-33
2023/09/14 09:33:00;;;;;;;7.25;2.20;;;18.50;99.90;;;;;;4993545;28;96843;-34
2023/09/14 09:35:28;;;;;;;10.05;2.55;;;18.60;99.90;;;;;;4984300;28;95286;-33
2023/09/14 09:37:55;;;;;;;;;;;18.70;99.90;;;;;;4979915;28;92233;-33
2023/09/14 09:40:23;;;;;;;3.33;1.83;;;18.50;99.90;;;;;;4992061;28;95102;-34
2023/09/14 09:42:49;;;;;;;5.03;2.45;;;18.60;99.90;;;;;;4993773;28;95713;-33
2023/09/14 09:45:18;;;;;;;4.18;2.00;;;18.50;99.90;;;;;;4993173;28;94309;-35
2023/09/14 09:47:44;;;;;;;7.25;2.75;;;18.60;99.90;;;;;;4985947;28;93645;-35
2023/09/14 09:50:14;;;;;;;9.80;2.42;;;18.60;99.90;;;;;;4992863;28;93013;-33
2023/09/14 09:52:42;;;;;;;5.78;3.08;;;18.80;99.90;;;;;;4993505;28;95059;-32
2023/09/14 09:55:25;;;;;;;10.73;2.67;;;18.90;99.90;;;;;;4993525;28;94600;-33
2023/09/14 09:57:58;;;;;;;4.32;2.42;;;19.00;99.90;;;;;;4992568;28;94127;-36
2023/09/14 10:00:31;;;;;;;5.70;2.65;;;19.00;99.90;;;;;;4993926;28;92102;-35
2023/09/14 10:02:58;;;;;;;7.90;2.72;;;19.00;99.90;;;;;;4992913;28;94641;-34
2023/09/14 10:05:31;;;;;;;6.65;2.53;;;19.10;99.90;;;;;;4992907;28;95389;-37
2023/09/14 10:07:58;;;;;;;5.57;2.47;;;19.20;99.90;;;;;;4974679;28;93094;-34
2023/09/14 10:10:31;;;;;;;5.15;1.83;;;18.80;99.90;;;;;;4994377;28;95036;-34
2023/09/14 10:13:00;;;;;;;4.72;2.25;;;18.80;99.90;;;;;;4987355;28;94974;-36
2023/09/14 10:15:28;;;;;;;6.82;2.30;;;19.10;99.90;;;;;;4991123;28;95095;-33
2023/09/14 10:17:57;;;;;;;4.00;2.20;;;19.10;99.90;;;;;;4994158;28;94385;-35
2023/09/14 10:20:24;;;;;;;9.85;2.22;;;19.00;99.90;;;;;;4992609;28;93449;-34
2023/09/14 10:22:51;;;;;;;3.75;2.33;;;18.80;99.90;;;;;;4992677;28;95246;-35
2023/09/14 10:25:18;;;;;;;6.13;2.45;;;19.10;99.90;;;;;;4992628;28;96036;-34
2023/09/14 10:27:44;;;;;;;8.35;2.63;;;19.20;99.90;;;;;;4991136;28;92979;-37
2023/09/14 10:30:20;;;;;;;2.28;1.75;;;19.10;99.90;;;;;;4992625;28;93662;-34
2023/09/14 10:32:52;;;;;;;6.88;2.03;;;19.00;99.90;;;;;;4992845;28;94934;-35
2023/09/14 10:35:18;;;;;;;5.97;2.25;;;18.80;99.90;;;;;;4984436;28;95068;-32
2023/09/14 10:37:45;;;;;;;5.18;2.70;;;18.70;99.90;;;;;;4978038;28;93813;-35
2023/09/14 10:40:13;;;;;;;6.57;2.53;;;19.00;99.90;;;;;;4988628;28;93944;-32
2023/09/14 10:42:42;;;;;;;7.15;2.20;;;18.80;99.20;;;;;;4992882;28;95323;-31
2023/09/14 10:45:10;;;;;;;4.15;2.45;;;18.70;99.90;;;;;;4993113;28;94468;-37
2023/09/14 10:47:38;;;;;;;6.15;2.78;;;18.70;99.90;;;;;;4990758;28;94938;-33
2023/09/14 10:50:05;;;;;;;7.18;3.25;;;18.70;99.90;;;;;;4991784;28;92537;-35
2023/09/14 10:52:33;;;;;;;5.63;2.85;;;18.60;99.90;;;;;;4992430;28;94968;-36
2023/09/14 10:54:59;;;;;;;6.82;2.85;;;18.80;99.90;;;;;;4974870;28;95431;-34
2023/09/14 10:57:29;;;;;;;5.57;2.08;;;18.60;99.80;;;;;;4981886;28;92525;-35
2023/09/14 10:59:58;;;;;;;4.53;2.13;;;18.80;99.90;;;;;;4990759;28;94005;-33
2023/09/14 11:02:39;;;;;;;11.57;3.17;;;18.80;99.90;;;;;;4992158;28;94243;-34
2023/09/14 11:05:18;;;;;;;2.50;2.15;;;18.90;99.90;;;;;;4990629;28;93530;-32
2023/09/14 11:07:47;;;;;;;4.53;2.75;;;18.70;99.90;;;;;;4993374;28;93179;-34
2023/09/14 11:10:22;;;;;;;3.95;2.10;;;18.90;99.90;;;;;;4993025;28;93103;-36
2023/09/14 11:12:48;;;;;;;5.82;1.98;;;19.00;99.90;;;;;;4990802;28;95954;-35
2023/09/14 11:15:23;;;;;;;2.50;2.05;;;18.90;99.90;;;;;;4992265;28;95351;-36
2023/09/14 11:17:53;;;;;;;5.03;2.17;;;19.00;99.80;;;;;;4992973;28;94656;-36
2023/09/14 11:20:24;;;;;;;4.35;1.88;;;18.60;98.50;;;;;;4991925;28;94042;-36
2023/09/14 11:22:51;;;;;;;5.65;2.78;;;18.70;99.90;;;;;;4993327;28;94731;-38
2023/09/14 11:25:43;;;;;;;7.70;2.55;;;18.80;99.90;;;;;;4991661;28;96000;-34
2023/09/14 11:28:19;;;;;;;2.78;2.40;;;19.00;99.90;;;;;;4990206;28;93261;-34
2023/09/14 11:30:47;;;;;;;3.45;2.60;;;19.20;99.90;;;;;;4990261;28;93031;-36
2023/09/14 11:33:14;;;;;;;4.82;2.92;;;19.00;99.40;;;;;;4991540;28;94788;-35
2023/09/14 11:35:45;;;;;;;3.60;2.85;;;19.00;99.90;;;;;;4991570;28;95015;-32
2023/09/14 11:38:19;;;;;;;6.80;2.70;;;18.90;99.90;;;;;;4982933;28;93203;-36
2023/09/14 11:40:45;;;;;;;4.47;3.03;;;18.90;99.90;;;;;;4995902;28;94692;-35
2023/09/14 11:43:21;;;;;;;5.13;2.78;;;18.90;99.90;;;;;;4996008;28;94525;-34
2023/09/14 11:45:57;;;;;;;4.53;2.92;;;18.70;99.90;;;;;;4989888;28;94105;-38
2023/09/14 11:48:23;;;;;;;4.28;2.35;;;18.70;99.90;;;;;;4994471;28;93062;-35
2023/09/14 11:50:51;;;;;;;3.80;2.78;;;18.70;99.90;;;;;;4995057;28;93608;-35
2023/09/14 11:53:18;;;;;;;5.00;2.53;;;18.70;99.90;;;;;;4989356;28;94964;-35
2023/09/14 11:55:46;;;;;;;2.60;2.30;;;18.70;99.90;;;;;;4995954;28;94401;-34
2023/09/14 11:58:13;;;;;;;4.25;2.85;;;18.70;99.90;;;;;;4995284;28;93359;-34
2023/09/14 12:00:42;;;;;;;4.10;2.17;;;18.80;99.90;;;;;;4994911;28;94167;-36
2023/09/14 12:03:08;;;;;;;4.00;2.38;;;18.70;99.90;;;;;;4993045;28;94653;-33
2023/09/14 12:05:34;;;;;;;6.47;3.05;;;18.60;99.90;;;;;;4993360;28;95296;-34
2023/09/14 12:08:11;;;;;;;7.05;2.47;;;18.70;99.90;;;;;;4992268;28;92928;-33
2023/09/14 12:10:37;;;;;;;3.92;2.33;;;18.80;99.90;;;;;;4973148;28;92984;-37
2023/09/14 12:13:17;;;;;;;6.05;2.88;;;18.90;99.90;;;;;;4994889;28;94399;-37
2023/09/14 12:15:44;;;;;;;7.88;3.40;;;19.00;99.90;;;;;;4995308;28;95004;-36
2023/09/14 12:18:10;;;;;;;5.72;2.33;;;19.00;99.90;;;;;;4990776;28;93064;-34
2023/09/14 12:20:39;;;;;;;7.85;2.67;;;19.00;99.90;;;;;;4989743;28;92538;-38
2023/09/14 12:23:07;;;;;;;3.65;2.08;;;18.80;99.90;;;;;;4995142;28;94307;-34
2023/09/14 12:25:33;;;;;;;2.70;1.92;;;18.80;99.90;;;;;;4994168;28;94598;-36
2023/09/14 12:28:00;;;;;;;6.93;2.83;;;18.80;99.90;;;;;;4995051;28;94816;-38
2023/09/14 12:30:27;;;;;;;7.18;2.97;;;18.90;99.90;;;;;;4982372;28;93832;-35
2023/09/14 12:32:53;;;;;;;6.78;2.72;;;18.80;99.90;;;;;;4995749;28;94576;-36
2023/09/14 12:35:18;;;;;;;4.68;2.08;;;19.00;99.90;;;;;;4980409;28;94725;-34
2023/09/14 12:37:44;;;;;;;7.05;3.38;;;19.20;99.90;;;;;;4989846;28;92986;-34
2023/09/14 12:40:12;;;;;;;5.90;2.70;;;19.20;99.90;;;;;;4993049;28;93326;-36
2023/09/14 12:42:41;;;;;;;2.17;1.90;;;19.30;99.90;;;;;;4995603;28;96092;-36
2023/09/14 12:45:20;;;;;;;5.28;3.20;;;19.50;99.90;;;;;;4993954;28;94205;-36
2023/09/14 12:47:47;;;;;;;4.80;2.65;;;19.40;99.90;;;;;;4994907;28;94800;-32
2023/09/14 12:50:16;;;;;;;5.75;3.03;;;19.50;99.90;;;;;;4993129;28;94442;-35
2023/09/14 12:52:49;;;;;;;7.13;3.42;;;19.60;99.20;;;;;;4993762;28;96287;-36